createdAt,value
2023-02-01T00:00:28.145Z,963.4054565
2023-02-01T00:01:28.881Z,963.4279785
2023-02-01T00:02:29.536Z,963.4054565
2023-02-01T00:03:30.727Z,963.423584
2023-02-01T00:04:31.253Z,963.4043579
2023-02-01T00:05:31.876Z,963.4134521
2023-02-01T00:06:32.493Z,963.4456177
2023-02-01T00:07:32.970Z,963.4185791
2023-02-01T00:08:34.925Z,963.437561
2023-02-01T00:09:35.433Z,963.4310913
2023-02-01T00:10:36.071Z,963.4290771
2023-02-01T00:11:36.815Z,963.4177856
2023-02-01T00:12:37.533Z,963.3776855
2023-02-01T00:13:38.824Z,963.3972168
2023-02-01T00:14:39.576Z,963.368103
2023-02-01T00:15:40.225Z,963.3527832
2023-02-01T00:16:40.851Z,963.34729
2023-02-01T00:17:41.925Z,963.3621826
2023-02-01T00:18:42.366Z,963.3135986
2023-02-01T00:19:42.894Z,963.2870483
2023-02-01T00:20:43.311Z,963.2405396
2023-02-01T00:21:44.250Z,963.2276611
2023-02-01T00:22:44.640Z,963.2268677
2023-02-01T00:23:45.718Z,963.2457886
2023-02-01T00:24:46.175Z,963.2693481
2023-02-01T00:25:47.147Z,963.2476807
2023-02-01T00:26:47.840Z,963.2510986
2023-02-01T00:27:48.204Z,963.2105713
2023-02-01T00:28:48.671Z,963.192627
2023-02-01T00:29:49.418Z,963.2097168
2023-02-01T00:30:50.736Z,963.1530762
2023-02-01T00:31:51.333Z,963.1289673
2023-02-01T00:32:51.569Z,963.1858521
2023-02-01T00:33:52.735Z,963.1690674
2023-02-01T00:35:23.882Z,963.1415405
2023-02-01T00:36:24.405Z,963.1529541
2023-02-01T00:37:24.859Z,963.1481934
2023-02-01T00:38:25.428Z,963.1102295
2023-02-01T00:39:26.016Z,963.0957642
2023-02-01T00:40:26.539Z,963.1020508
2023-02-01T00:41:27.225Z,963.0859375
2023-02-01T00:42:27.711Z,963.0982666
2023-02-01T00:43:28.216Z,963.1031494
2023-02-01T00:44:29.519Z,963.0982666
2023-02-01T00:45:30.008Z,963.0904541
2023-02-01T00:46:30.477Z,963.0912476
2023-02-01T00:47:31.682Z,963.0328369
2023-02-01T00:48:32.197Z,963.060791
2023-02-01T00:49:32.647Z,963.029541
2023-02-01T00:50:33.145Z,963.0204468
2023-02-01T00:51:33.642Z,963.0255737
2023-02-01T00:52:34.193Z,963.0078735
2023-02-01T00:53:35.176Z,963.0524902
2023-02-01T00:54:35.730Z,962.9998169
2023-02-01T00:55:36.685Z,963.0351563
2023-02-01T00:56:37.242Z,963.0534668
2023-02-01T00:57:37.824Z,963.0466919
2023-02-01T00:58:38.343Z,963.0172729
2023-02-01T00:59:38.808Z,963.0301514
2023-02-01T01:00:40.222Z,963.0357666
2023-02-01T01:01:40.538Z,963.0197144
2023-02-01T01:02:41.079Z,963.060791
2023-02-01T01:03:42.134Z,963.0253296
2023-02-01T01:04:42.570Z,963.0293579
2023-02-01T01:05:43.286Z,962.9517212
2023-02-01T01:06:43.880Z,962.9508057
2023-02-01T01:07:44.526Z,962.8953857
2023-02-01T01:08:44.953Z,962.9360352
2023-02-01T01:09:45.382Z,962.8684082
2023-02-01T01:10:45.966Z,962.9111938
2023-02-01T01:11:46.479Z,962.8699951
2023-02-01T01:12:47.105Z,962.8685913
2023-02-01T01:13:48.159Z,962.8624878
2023-02-01T01:14:48.594Z,962.8143921
2023-02-01T01:15:49.283Z,962.8018188
2023-02-01T01:16:49.804Z,962.7665405
2023-02-01T01:17:51.217Z,962.7583008
2023-02-01T01:18:51.756Z,962.770752
2023-02-01T01:19:52.167Z,962.7504883
2023-02-01T01:21:23.417Z,962.7477417
2023-02-01T01:22:24.024Z,962.7776489
2023-02-01T01:23:24.691Z,962.7667236
2023-02-01T01:24:25.887Z,962.7995605
2023-02-01T01:25:26.363Z,962.8278198
2023-02-01T01:26:26.909Z,962.7701416
2023-02-01T01:27:27.431Z,962.7868652
2023-02-01T01:28:27.977Z,962.7921753
2023-02-01T01:29:28.418Z,962.8058472
2023-02-01T01:30:29.715Z,962.7617188
2023-02-01T01:31:30.253Z,962.7965088
2023-02-01T01:32:30.676Z,962.7518921
2023-02-01T01:33:31.195Z,962.7683716
2023-02-01T01:34:32.388Z,962.7956543
2023-02-01T01:35:32.856Z,962.7746582
2023-02-01T01:36:33.543Z,962.7736816
2023-02-01T01:37:34.123Z,962.7797852
2023-02-01T01:38:34.715Z,962.7348633
2023-02-01T01:39:35.137Z,962.7193604
2023-02-01T01:40:35.658Z,962.6889038
2023-02-01T01:41:36.086Z,962.6746826
2023-02-01T01:42:36.679Z,962.7034912
2023-02-01T01:43:37.173Z,962.708252
2023-02-01T01:44:38.660Z,962.7416382
2023-02-01T01:45:39.138Z,962.7463989
2023-02-01T01:46:39.589Z,962.7781372
2023-02-01T01:47:40.695Z,962.7988892
2023-02-01T01:48:41.214Z,962.7732544
2023-02-01T01:49:41.756Z,962.7910767
2023-02-01T01:50:42.202Z,962.7232666
2023-02-01T01:51:43.354Z,962.75354
2023-02-01T01:52:43.936Z,962.6931152
2023-02-01T01:53:44.470Z,962.7059326
2023-02-01T01:54:46.044Z,962.7270508
2023-02-01T01:55:46.432Z,962.6223145
2023-02-01T01:56:47.658Z,962.624939
2023-02-01T01:57:48.097Z,962.6088867
2023-02-01T01:58:48.664Z,962.5507202
2023-02-01T01:59:49.289Z,962.5328369
2023-02-01T02:00:49.765Z,962.5251465
2023-02-01T02:01:50.355Z,962.510376
2023-02-01T02:02:50.746Z,962.5220947
2023-02-01T02:03:51.428Z,962.4701538
2023-02-01T02:05:23.189Z,962.4628296
2023-02-01T02:06:23.639Z,962.4578247
2023-02-01T02:07:24.853Z,962.4834595
2023-02-01T02:08:25.366Z,962.4382935
2023-02-01T02:09:25.859Z,962.4569702
2023-02-01T02:10:26.325Z,962.4243774
2023-02-01T02:11:26.828Z,962.428894
2023-02-01T02:12:27.241Z,962.367981
2023-02-01T02:13:27.746Z,962.4395142
2023-02-01T02:14:28.869Z,962.4210815
2023-02-01T02:15:29.937Z,962.4290771
2023-02-01T02:16:30.494Z,962.4871826
2023-02-01T02:17:30.810Z,962.4946289
2023-02-01T02:18:31.290Z,962.531189
2023-02-01T02:19:31.709Z,962.5775757
2023-02-01T02:20:33.139Z,962.5571899
2023-02-01T02:21:33.718Z,962.5683594
2023-02-01T02:22:34.112Z,962.5648193
2023-02-01T02:23:34.584Z,962.5664063
2023-02-01T02:24:35.630Z,962.5842896
2023-02-01T02:25:36.184Z,962.5385742
2023-02-01T02:26:36.707Z,962.5407715
2023-02-01T02:27:37.104Z,962.598877
2023-02-01T02:28:37.619Z,962.524353
2023-02-01T02:29:38.033Z,962.5457764
2023-02-01T02:30:38.540Z,962.493103
2023-02-01T02:31:39.099Z,962.5285645
2023-02-01T02:32:39.485Z,962.5683594
2023-02-01T02:33:39.960Z,962.5083008
2023-02-01T02:34:41.621Z,962.546936
2023-02-01T02:35:42.042Z,962.5331421
2023-02-01T02:36:42.617Z,962.5997925
2023-02-01T02:37:43.081Z,962.5728149
2023-02-01T02:38:43.477Z,962.5754395
2023-02-01T02:39:44.007Z,962.5738525
2023-02-01T02:40:44.456Z,962.5548706
2023-02-01T02:41:45.004Z,962.5547485
2023-02-01T02:42:45.527Z,962.5097046
2023-02-01T02:43:45.992Z,962.524292
2023-02-01T02:44:47.142Z,962.5906982
2023-02-01T02:45:47.812Z,962.555481
2023-02-01T02:46:48.061Z,962.616272
2023-02-01T02:47:48.519Z,962.5951538
2023-02-01T02:48:49.949Z,962.6097412
2023-02-01T02:49:50.429Z,962.6156006
2023-02-01T02:50:50.900Z,962.6577148
2023-02-01T02:51:51.866Z,962.6430664
2023-02-01T02:53:22.483Z,962.6749878
2023-02-01T02:54:23.065Z,962.6677246
2023-02-01T02:55:24.395Z,962.678772
2023-02-01T02:56:24.887Z,962.71875
2023-02-01T02:57:25.368Z,962.7139282
2023-02-01T02:58:26.753Z,962.7282715
2023-02-01T02:59:27.206Z,962.7463379
2023-02-01T03:00:27.669Z,962.7220459
2023-02-01T03:01:28.262Z,962.7201538
2023-02-01T03:02:28.702Z,962.7081299
2023-02-01T03:03:29.138Z,962.7443848
2023-02-01T03:04:29.714Z,962.7240601
2023-02-01T03:05:30.155Z,962.730957
2023-02-01T03:06:31.471Z,962.7267456
2023-02-01T03:07:31.914Z,962.7235107
2023-02-01T03:08:32.365Z,962.7474976
2023-02-01T03:09:32.822Z,962.7109375
2023-02-01T03:10:33.247Z,962.7045288
2023-02-01T03:11:33.728Z,962.6825562
2023-02-01T03:12:35.164Z,962.6702881
2023-02-01T03:13:35.610Z,962.6348267
2023-02-01T03:14:36.630Z,962.6468506
2023-02-01T03:15:37.098Z,962.6430664
2023-02-01T03:16:37.699Z,962.5990601
2023-02-01T03:17:37.954Z,962.5718994
2023-02-01T03:18:39.409Z,962.5671997
2023-02-01T03:19:39.843Z,962.5640869
2023-02-01T03:20:40.319Z,962.5418701
2023-02-01T03:21:40.808Z,962.5626831
2023-02-01T03:22:41.277Z,962.5628662
2023-02-01T03:23:41.794Z,962.6221313
2023-02-01T03:24:43.120Z,962.5935059
2023-02-01T03:25:43.600Z,962.6343994
2023-02-01T03:26:44.137Z,962.6489868
2023-02-01T03:27:44.487Z,962.6481323
2023-02-01T03:28:44.916Z,962.6409302
2023-02-01T03:29:45.423Z,962.6862793
2023-02-01T03:30:45.917Z,962.6811523
2023-02-01T03:31:46.403Z,962.6662598
2023-02-01T03:32:46.774Z,962.6710815
2023-02-01T03:33:47.175Z,962.6221924
2023-02-01T03:34:48.633Z,962.6237793
2023-02-01T03:35:49.049Z,962.6504517
2023-02-01T03:36:49.510Z,962.6766968
2023-02-01T03:37:49.960Z,962.6698608
2023-02-01T03:38:50.339Z,962.7148438
2023-02-01T03:39:51.252Z,962.6829834
2023-02-01T03:41:21.973Z,962.6640015
2023-02-01T03:42:23.423Z,962.6973267
2023-02-01T03:43:23.885Z,962.7076416
2023-02-01T03:44:24.319Z,962.6676636
2023-02-01T03:45:24.810Z,962.6766968
2023-02-01T03:46:25.921Z,962.703064
2023-02-01T03:47:26.342Z,962.6504517
2023-02-01T03:48:26.794Z,962.6392822
2023-02-01T03:49:27.301Z,962.6478271
2023-02-01T03:50:27.707Z,962.7043457
2023-02-01T03:51:28.920Z,962.6481323
2023-02-01T03:52:29.374Z,962.6325073
2023-02-01T03:53:29.808Z,962.711731
2023-02-01T03:54:30.274Z,962.6607666
2023-02-01T03:55:31.317Z,962.6414185
2023-02-01T03:56:31.782Z,962.6322632
2023-02-01T03:57:32.264Z,962.6068726
2023-02-01T03:58:33.354Z,962.5925293
2023-02-01T03:59:33.769Z,962.5298462
2023-02-01T04:00:34.165Z,962.5279541
2023-02-01T04:01:34.693Z,962.5201416
2023-02-01T04:02:35.253Z,962.5151367
2023-02-01T04:03:35.556Z,962.4873657
2023-02-01T04:04:36.111Z,962.5300903
2023-02-01T04:05:37.326Z,962.4932861
2023-02-01T04:06:37.822Z,962.4879761
2023-02-01T04:07:38.308Z,962.4884644
2023-02-01T04:08:38.753Z,962.4676514
2023-02-01T04:09:39.183Z,962.4570313
2023-02-01T04:10:39.639Z,962.5057983
2023-02-01T04:11:40.045Z,962.489624
2023-02-01T04:12:40.755Z,962.508728
2023-02-01T04:13:41.219Z,962.4631348
2023-02-01T04:14:41.648Z,962.4692383
2023-02-01T04:15:42.845Z,962.4848633
2023-02-01T04:16:43.379Z,962.5122681
2023-02-01T04:17:43.815Z,962.477356
2023-02-01T04:18:45.123Z,962.4517212
2023-02-01T04:19:45.644Z,962.4675293
2023-02-01T04:20:46.039Z,962.4851685
2023-02-01T04:21:46.511Z,962.5046387
2023-02-01T04:22:46.978Z,962.5282593
2023-02-01T04:23:47.374Z,962.5814209
2023-02-01T04:24:47.835Z,962.5792847
2023-02-01T04:25:48.856Z,962.5742188
2023-02-01T04:26:49.422Z,962.6273193
2023-02-01T04:27:49.799Z,962.6609497
2023-02-01T04:28:50.666Z,962.6624756
2023-02-01T04:30:21.603Z,962.6494751
2023-02-01T04:31:21.920Z,962.7697144
2023-02-01T04:32:22.311Z,962.7990723
2023-02-01T04:33:22.703Z,962.8181763
2023-02-01T04:34:23.192Z,962.8270264
2023-02-01T04:35:24.641Z,962.8291626
2023-02-01T04:36:25.049Z,962.8376465
2023-02-01T04:37:25.521Z,962.8259277
2023-02-01T04:38:25.944Z,962.8677368
2023-02-01T04:39:26.396Z,962.8786621
2023-02-01T04:40:26.855Z,962.8621826
2023-02-01T04:41:27.292Z,962.8671875
2023-02-01T04:42:27.717Z,962.8853149
2023-02-01T04:43:28.190Z,962.8482666
2023-02-01T04:44:28.638Z,962.8495483
2023-02-01T04:45:29.621Z,962.8632813
2023-02-01T04:46:30.182Z,962.8135986
2023-02-01T04:47:30.480Z,962.8208008
2023-02-01T04:48:31.637Z,962.8306274
2023-02-01T04:49:32.023Z,962.7650146
2023-02-01T04:50:32.516Z,962.7561035
2023-02-01T04:51:32.999Z,962.7770386
2023-02-01T04:52:33.458Z,962.7714233
2023-02-01T04:53:33.889Z,962.8473511
2023-02-01T04:54:34.306Z,962.7988281
2023-02-01T04:55:35.671Z,962.7990723
2023-02-01T04:56:36.078Z,962.7440796
2023-02-01T04:57:36.555Z,962.7324829
2023-02-01T04:58:36.972Z,962.7421265
2023-02-01T04:59:37.352Z,962.7386475
2023-02-01T05:00:37.854Z,962.7754517
2023-02-01T05:01:38.384Z,962.7767334
2023-02-01T05:02:38.735Z,962.7985229
2023-02-01T05:03:39.204Z,962.8121948
2023-02-01T05:04:39.641Z,962.8118896
2023-02-01T05:05:41.110Z,962.8601074
2023-02-01T05:06:41.586Z,962.8911743
2023-02-01T05:07:41.981Z,962.9291992
2023-02-01T05:08:42.486Z,962.9689941
2023-02-01T05:09:42.853Z,963.0007324
2023-02-01T05:10:43.366Z,963.0320435
2023-02-01T05:11:43.804Z,963.0393066
2023-02-01T05:12:44.535Z,963.0939331
2023-02-01T05:13:45.027Z,963.0679932
2023-02-01T05:14:45.876Z,963.081543
2023-02-01T05:15:47.273Z,963.1105957
2023-02-01T05:16:47.698Z,963.0971069
2023-02-01T05:17:48.137Z,963.0875244
2023-02-01T05:18:48.597Z,963.1615601
2023-02-01T05:19:49.012Z,963.133606
2023-02-01T05:20:50.141Z,963.1564941
2023-02-01T05:22:20.763Z,963.2310791
2023-02-01T05:23:21.280Z,963.2092285
2023-02-01T05:24:21.723Z,963.246582
2023-02-01T05:25:22.130Z,963.3102417
2023-02-01T05:26:23.425Z,963.3216553
2023-02-01T05:27:23.836Z,963.3442383
2023-02-01T05:28:24.370Z,963.3855591
2023-02-01T05:29:24.787Z,963.3800049
2023-02-01T05:30:25.474Z,963.3865356
2023-02-01T05:31:25.871Z,963.4202881
2023-02-01T05:32:26.217Z,963.3954468
2023-02-01T05:33:26.564Z,963.3815918
2023-02-01T05:34:27.045Z,963.4590454
2023-02-01T05:35:28.138Z,963.446228
2023-02-01T05:36:28.621Z,963.4810791
2023-02-01T05:37:29.620Z,963.4729004
2023-02-01T05:38:30.090Z,963.4890747
2023-02-01T05:39:30.526Z,963.4794312
2023-02-01T05:40:30.943Z,963.4731445
2023-02-01T05:41:31.492Z,963.47052
2023-02-01T05:42:31.910Z,963.4378052
2023-02-01T05:43:32.295Z,963.4547729
2023-02-01T05:44:32.758Z,963.4978027
2023-02-01T05:45:33.192Z,963.4974976
2023-02-01T05:46:34.481Z,963.4956055
2023-02-01T05:47:34.875Z,963.5007935
2023-02-01T05:48:35.268Z,963.5197144
2023-02-01T05:49:36.419Z,963.5136108
2023-02-01T05:50:36.831Z,963.4692383
2023-02-01T05:51:37.290Z,963.4788208
2023-02-01T05:52:37.757Z,963.4597168
2023-02-01T05:53:38.152Z,963.4880981
2023-02-01T05:54:38.631Z,963.461792
2023-02-01T05:55:39.623Z,963.4958496
2023-02-01T05:56:40.175Z,963.492981
2023-02-01T05:57:40.789Z,963.4971924
2023-02-01T05:58:41.291Z,963.4832764
2023-02-01T05:59:41.740Z,963.477356
2023-02-01T06:00:42.110Z,963.4770508
2023-02-01T06:01:42.589Z,963.487793
2023-02-01T06:02:43.051Z,963.4854126
2023-02-01T06:03:43.422Z,963.4309082
2023-02-01T06:04:43.859Z,963.4238892
2023-02-01T06:05:44.232Z,963.406311
2023-02-01T06:06:44.677Z,963.4393921
2023-02-01T06:07:45.120Z,963.4317017
2023-02-01T06:08:45.491Z,963.4476318
2023-02-01T06:09:46.028Z,963.4395142
2023-02-01T06:10:46.436Z,963.5072632
2023-02-01T06:11:46.905Z,963.4787598
2023-02-01T06:12:47.387Z,963.5601807
2023-02-01T06:13:47.794Z,963.5979614
2023-02-01T06:14:48.283Z,963.6450195
2023-02-01T06:15:49.640Z,963.6956177
2023-02-01T06:17:20.339Z,963.68927
2023-02-01T06:18:20.749Z,963.6746826
2023-02-01T06:19:21.217Z,963.6286011
2023-02-01T06:20:22.067Z,963.5985107
2023-02-01T06:21:22.821Z,963.5842285
2023-02-01T06:22:23.389Z,963.5823364
2023-02-01T06:23:23.941Z,963.5873413
2023-02-01T06:24:24.311Z,963.6161499
2023-02-01T06:25:24.755Z,963.5595093
2023-02-01T06:26:25.937Z,963.6112671
2023-02-01T06:27:26.367Z,963.579834
2023-02-01T06:28:26.799Z,963.6091919
2023-02-01T06:29:27.285Z,963.6477051
2023-02-01T06:30:27.688Z,963.6358032
2023-02-01T06:31:29.061Z,963.6334229
2023-02-01T06:32:29.407Z,963.6472168
2023-02-01T06:33:29.841Z,963.6296997
2023-02-01T06:34:30.341Z,963.5895386
2023-02-01T06:35:30.747Z,963.6004639
2023-02-01T06:36:31.895Z,963.6414185
2023-02-01T06:37:32.311Z,963.6312256
2023-02-01T06:38:32.818Z,963.6917114
2023-02-01T06:39:33.260Z,963.6570435
2023-02-01T06:40:33.679Z,963.6738892
2023-02-01T06:41:34.172Z,963.6937256
2023-02-01T06:42:34.639Z,963.7767334
2023-02-01T06:43:35.051Z,963.6965332
2023-02-01T06:44:35.601Z,963.7675171
2023-02-01T06:45:36.079Z,963.7787476
2023-02-01T06:46:36.690Z,963.7860718
2023-02-01T06:47:38.894Z,963.7730713
2023-02-01T06:48:37.613Z,963.7637329
2023-02-01T06:49:37.976Z,963.8526611
2023-02-01T06:50:38.455Z,963.8646851
2023-02-01T06:51:39.926Z,963.8953247
2023-02-01T06:52:40.659Z,963.890564
2023-02-01T06:53:41.083Z,963.8967285
2023-02-01T06:54:41.602Z,963.8739014
2023-02-01T06:55:42.059Z,963.8883057
2023-02-01T06:56:42.584Z,963.8585815
2023-02-01T06:57:43.623Z,963.819397
2023-02-01T06:58:44.142Z,963.815918
2023-02-01T06:59:44.586Z,963.8143921
2023-02-01T07:00:45.032Z,963.8275146
2023-02-01T07:01:45.630Z,963.8423462
2023-02-01T07:02:46.040Z,963.8640137
2023-02-01T07:03:46.605Z,963.8295288
2023-02-01T07:04:46.931Z,963.8869019
2023-02-01T07:05:47.370Z,963.8615723
2023-02-01T07:06:48.819Z,963.8778076
2023-02-01T07:08:19.539Z,963.822998
2023-02-01T07:09:20.046Z,963.8240356
2023-02-01T07:10:20.652Z,963.8314209
2023-02-01T07:11:20.972Z,963.8082886
2023-02-01T07:12:21.401Z,963.8418579
2023-02-01T07:13:21.859Z,963.8426514
2023-02-01T07:14:22.429Z,963.8568115
2023-02-01T07:15:25.306Z,963.8823242
2023-02-01T07:16:24.226Z,963.8909912
2023-02-01T07:17:24.676Z,963.8520508
2023-02-01T07:18:25.143Z,963.8798218
2023-02-01T07:19:25.671Z,963.8406372
2023-02-01T07:20:26.148Z,963.8710327
2023-02-01T07:21:27.400Z,963.8574829
2023-02-01T07:22:27.879Z,963.8373413
2023-02-01T07:23:28.322Z,963.7988892
2023-02-01T07:24:28.851Z,963.8323364
2023-02-01T07:25:29.331Z,963.7943726
2023-02-01T07:26:30.730Z,963.8135986
2023-02-01T07:27:31.105Z,963.7998657
2023-02-01T07:28:31.519Z,963.8242798
2023-02-01T07:29:32.041Z,963.8584595
2023-02-01T07:30:32.525Z,963.9032593
2023-02-01T07:31:33.045Z,963.9559937
2023-02-01T07:32:33.567Z,963.9904785
2023-02-01T07:33:33.946Z,964.0054932
2023-02-01T07:34:34.435Z,964.053772
2023-02-01T07:35:34.911Z,964.031311
2023-02-01T07:36:36.312Z,964.0623169
2023-02-01T07:37:36.615Z,964.0580444
2023-02-01T07:38:37.030Z,964.0591431
2023-02-01T07:39:37.432Z,964.100769
2023-02-01T07:40:38.073Z,964.0845337
2023-02-01T07:41:39.364Z,964.1296997
2023-02-01T07:42:39.830Z,964.1480713
2023-02-01T07:43:40.295Z,964.2038574
2023-02-01T07:44:40.745Z,964.189209
2023-02-01T07:45:41.303Z,964.2525635
2023-02-01T07:46:41.782Z,964.2307129
2023-02-01T07:47:42.276Z,964.2927856
2023-02-01T07:48:42.745Z,964.303772
2023-02-01T07:49:43.146Z,964.305481
2023-02-01T07:50:43.663Z,964.3170166
2023-02-01T07:51:44.218Z,964.2453003
2023-02-01T07:52:44.695Z,964.1968994
2023-02-01T07:53:45.195Z,964.2313843
2023-02-01T07:54:45.621Z,964.1919556
2023-02-01T07:55:46.137Z,964.2181396
2023-02-01T07:56:47.172Z,964.2209473
2023-02-01T07:57:47.622Z,964.3134155
2023-02-01T07:59:18.587Z,964.319397
2023-02-01T08:00:19.132Z,964.3682861
2023-02-01T08:01:19.720Z,964.3823242
2023-02-01T08:02:20.036Z,964.4434204
2023-02-01T08:03:20.571Z,964.4376831
2023-02-01T08:04:21.959Z,964.4037476
2023-02-01T08:05:22.423Z,964.4073486
2023-02-01T08:06:22.833Z,964.3782959
2023-02-01T08:07:23.864Z,964.3969727
2023-02-01T08:08:24.332Z,964.3184204
2023-02-01T08:09:24.875Z,964.3412476
2023-02-01T08:10:25.701Z,964.4029541
2023-02-01T08:11:25.710Z,964.4070435
2023-02-01T08:12:26.532Z,964.463623
2023-02-01T08:13:26.759Z,964.5164185
2023-02-01T08:14:27.264Z,964.4939575
2023-02-01T08:15:27.760Z,964.5022583
2023-02-01T08:16:28.353Z,964.5351563
2023-02-01T08:17:29.434Z,964.5348511
2023-02-01T08:18:29.919Z,964.5095215
2023-02-01T08:19:30.390Z,964.5392456
2023-02-01T08:20:30.898Z,964.5532227
2023-02-01T08:21:31.323Z,964.5198364
2023-02-01T08:22:31.849Z,964.5175781
2023-02-01T08:23:32.247Z,964.5814209
2023-02-01T08:24:32.782Z,964.588623
2023-02-01T08:25:33.265Z,964.6068115
2023-02-01T08:26:35.004Z,964.5675049
2023-02-01T08:27:36.333Z,964.5621948
2023-02-01T08:28:37.982Z,964.546936
2023-02-01T08:29:37.267Z,964.5499268
2023-02-01T08:30:37.764Z,964.5402832
2023-02-01T08:31:38.329Z,964.5934448
2023-02-01T08:32:38.817Z,964.5910645
2023-02-01T08:33:39.246Z,964.586853
2023-02-01T08:34:39.808Z,964.5766602
2023-02-01T08:35:43.734Z,964.5942993
2023-02-01T08:36:41.144Z,964.5738525
2023-02-01T08:37:42.362Z,964.6156006
2023-02-01T08:38:42.817Z,964.5195313
2023-02-01T08:39:43.412Z,964.4910889
2023-02-01T08:40:43.844Z,964.4295044
2023-02-01T08:41:44.432Z,964.4279785
2023-02-01T08:42:44.901Z,964.4261475
2023-02-01T08:43:45.360Z,964.4673462
2023-02-01T08:44:45.863Z,964.4743652
2023-02-01T08:45:46.332Z,964.4589233
2023-02-01T08:46:46.944Z,964.534668
2023-02-01T08:48:18.709Z,964.5421753
2023-02-01T08:49:19.189Z,964.6116943
2023-02-01T08:50:20.719Z,964.6340332
2023-02-01T08:51:21.219Z,964.6314697
2023-02-01T08:52:21.672Z,964.6323242
2023-02-01T08:53:22.315Z,964.6591187
2023-02-01T08:54:22.844Z,964.6305542
2023-02-01T08:55:23.291Z,964.6088257
2023-02-01T08:56:23.855Z,964.6240845
2023-02-01T08:57:24.856Z,964.6060791
2023-02-01T08:58:25.352Z,964.6120605
2023-02-01T08:59:27.847Z,964.6062622
2023-02-01T09:00:26.594Z,964.5368652
2023-02-01T09:01:26.822Z,964.5499878
2023-02-01T09:02:27.308Z,964.5162354
2023-02-01T09:03:27.905Z,964.5187378
2023-02-01T09:04:28.371Z,964.553833
2023-02-01T09:05:40.671Z,964.5935669
2023-02-01T09:06:29.480Z,964.6433716
2023-02-01T09:07:30.812Z,964.6799927
2023-02-01T09:08:31.363Z,964.7028198
2023-02-01T09:09:31.871Z,964.690918
2023-02-01T09:10:35.239Z,964.708374
2023-02-01T09:11:33.346Z,964.7127075
2023-02-01T09:12:33.778Z,964.6710815
2023-02-01T09:13:35.112Z,964.673584
2023-02-01T09:14:35.674Z,964.6479492
2023-02-01T09:15:36.188Z,964.6659546
2023-02-01T09:16:36.542Z,964.7052612
2023-02-01T09:17:37.891Z,964.7238159
2023-02-01T09:18:45.990Z,964.6889038
2023-02-01T09:19:39.189Z,964.6881104
2023-02-01T09:20:39.322Z,964.6470337
2023-02-01T09:21:40.449Z,964.6372681
2023-02-01T09:22:40.927Z,964.5790405
2023-02-01T09:23:41.376Z,964.5762329
2023-02-01T09:24:41.939Z,964.6233521
2023-02-01T09:25:42.504Z,964.6132813
2023-02-01T09:26:42.917Z,964.6654663
2023-02-01T09:27:44.407Z,964.6551514
2023-02-01T09:28:44.861Z,964.661377
2023-02-01T09:29:45.279Z,964.6216431
2023-02-01T09:30:46.002Z,964.7003174
2023-02-01T09:32:17.710Z,964.7145386
2023-02-01T09:33:17.972Z,964.7948608
2023-02-01T09:34:18.433Z,964.8256836
2023-02-01T09:35:18.878Z,964.8030396
2023-02-01T09:36:19.318Z,964.8092041
2023-02-01T09:37:20.670Z,964.8165894
2023-02-01T09:38:21.065Z,964.7687378
2023-02-01T09:39:21.481Z,964.7476807
2023-02-01T09:40:22.428Z,964.7404785
2023-02-01T09:41:22.503Z,964.7229004
2023-02-01T09:42:23.056Z,964.6868896
2023-02-01T09:43:23.525Z,964.7050171
2023-02-01T09:44:25.759Z,964.694397
2023-02-01T09:45:24.448Z,964.657959
2023-02-01T09:46:24.926Z,964.5914307
2023-02-01T09:47:26.182Z,964.5733032
2023-02-01T09:48:26.683Z,964.5834351
2023-02-01T09:49:27.105Z,964.5406494
2023-02-01T09:50:27.653Z,964.5623169
2023-02-01T09:51:27.970Z,964.6265869
2023-02-01T09:52:28.431Z,964.6102905
2023-02-01T09:53:28.983Z,964.609436
2023-02-01T09:54:30.769Z,964.5963135
2023-02-01T09:55:29.917Z,964.6911011
2023-02-01T09:56:30.363Z,964.7176514
2023-02-01T09:57:31.674Z,964.7595215
2023-02-01T09:58:32.102Z,964.7139282
2023-02-01T09:59:32.571Z,964.7000122
2023-02-01T10:00:33.071Z,964.7069702
2023-02-01T10:01:33.522Z,964.710144
2023-02-01T10:02:33.946Z,964.7011108
2023-02-01T10:03:34.468Z,964.7443848
2023-02-01T10:04:34.872Z,964.7647705
2023-02-01T10:05:35.655Z,964.7238159
2023-02-01T10:06:36.385Z,964.6945801
2023-02-01T10:07:37.813Z,964.6799927
2023-02-01T10:08:38.734Z,964.6213989
2023-02-01T10:09:39.183Z,964.654541
2023-02-01T10:10:39.707Z,964.6392212
2023-02-01T10:11:41.675Z,964.6470337
2023-02-01T10:12:42.517Z,964.6702881
2023-02-01T10:13:43.062Z,964.6757202
2023-02-01T10:14:43.547Z,964.7345581
2023-02-01T10:15:44.210Z,964.7658691
2023-02-01T10:16:44.873Z,964.7056274
2023-02-01T10:17:46.096Z,964.6732788
2023-02-01T10:19:17.025Z,964.715332
2023-02-01T10:20:17.410Z,964.6845093
2023-02-01T10:21:18.933Z,964.6334229
2023-02-01T10:22:19.317Z,964.661377
2023-02-01T10:23:33.275Z,964.6528931
2023-02-01T10:24:20.344Z,964.6882324
2023-02-01T10:25:20.831Z,964.6448364
2023-02-01T10:26:21.574Z,964.6486206
2023-02-01T10:27:21.867Z,964.5958862
2023-02-01T10:28:22.928Z,964.6118774
2023-02-01T10:29:23.356Z,964.5999146
2023-02-01T10:30:24.226Z,964.600708
2023-02-01T10:31:25.309Z,964.6116333
2023-02-01T10:32:25.746Z,964.5892334
2023-02-01T10:33:26.150Z,964.586853
2023-02-01T10:34:26.643Z,964.5790405
2023-02-01T10:35:27.127Z,964.5956421
2023-02-01T10:36:29.186Z,964.5498657
2023-02-01T10:37:28.197Z,964.5421143
2023-02-01T10:38:28.684Z,964.5485229
2023-02-01T10:39:29.798Z,964.5427246
2023-02-01T10:40:30.212Z,964.5301514
2023-02-01T10:41:30.977Z,964.5247803
2023-02-01T10:42:31.384Z,964.4787598
2023-02-01T10:43:31.922Z,964.5507813
2023-02-01T10:44:32.393Z,964.4718018
2023-02-01T10:45:32.804Z,964.508728
2023-02-01T10:46:33.379Z,964.5410767
2023-02-01T10:47:33.985Z,964.5529175
2023-02-01T10:48:35.353Z,964.5678101
2023-02-01T10:49:35.855Z,964.5861206
2023-02-01T10:50:36.365Z,964.5861206
2023-02-01T10:51:37.484Z,964.5718994
2023-02-01T10:52:38.097Z,964.5678101
2023-02-01T10:53:38.637Z,964.4926758
2023-02-01T10:54:39.086Z,964.4918213
2023-02-01T10:55:41.142Z,964.4382935
2023-02-01T10:56:40.368Z,964.4229126
2023-02-01T10:57:40.802Z,964.3334961
2023-02-01T10:58:41.920Z,964.2995605
2023-02-01T10:59:44.927Z,964.272644
2023-02-01T11:00:43.146Z,964.2335815
2023-02-01T11:01:43.623Z,964.2337646
2023-02-01T11:02:44.106Z,964.2391357